Decoded Metar for PAMD (MIDDLETON ISLAND in AK, USA) (IATA:N/A) | Meteo·Mobile Aviation Weather
aviador You're here:

PAMD Decoded Metar

MIDDLETON ISLAND in AK, USA
Report Time2018-08-21 07:43:00
UTC Time2018-08-21 07:51:02
Flight Rules lifr LIFR
Wind160° at 10 kt
W.Decomp.*RWY 13: 9.8 kt HW 2.1 kt RCW
RWY 20: 5.3 kt HW 8.5 kt LCW
W.Rank160° ranks 17
Current wind is above 160° avg. (9.9)
Visibility1207 m
Phenomena:Light Rain
Mist
Clouds:Overcast 004 Hf
Ceiling400 ft
Temp13°C (ISA -2)
Dew Point13°C (100% RH)
AAT10.3°C
QNH1014 hPa
Density Alt-16 ft
Elevation46 ft
Report Wrong Elevation
Raw Report
PAMD 210743Z AUTO 16010KT 3/4SM -RA BR OVC004 13/13 A2993 RMK AO2
P0006=

Extra information for PAMD:More info

Metar Taf Metar & Taf Last 4 Metars F.Rules Stats Wind Profile Meteogram Temp Stats Airport Information Weather charts Add Link Nearby VenuesMetar ALERT Operation Metar Decoded Social comments

AIRNAV info for PAMD